sensor_id;sensor_type;location;lat;lon;timestamp;temperature;humidity
7174;DHT22;3628;48.654;8.932;2023-11-18T00:00:34;4.90;99.90
7174;DHT22;3628;48.654;8.932;2023-11-18T00:02:59;4.90;99.90
7174;DHT22;3628;48.654;8.932;2023-11-18T00:05:25;4.90;99.90
7174;DHT22;3628;48.654;8.932;2023-11-18T00:07:51;4.90;99.90
7174;DHT22;3628;48.654;8.932;2023-11-18T00:10:16;4.90;99.90
7174;DHT22;3628;48.654;8.932;2023-11-18T00:12:42;4.90;99.90
7174;DHT22;3628;48.654;8.932;2023-11-18T00:15:09;4.90;99.90
7174;DHT22;3628;48.654;8.932;2023-11-18T00:17:36;4.90;99.90
7174;DHT22;3628;48.654;8.932;2023-11-18T00:20:02;5.00;99.90
7174;DHT22;3628;48.654;8.932;2023-11-18T00:22:34;5.00;99.90
7174;DHT22;3628;48.654;8.932;2023-11-18T00:24:59;5.00;99.90
7174;DHT22;3628;48.654;8.932;2023-11-18T00:27:25;5.10;99.90
7174;DHT22;3628;48.654;8.932;2023-11-18T00:29:50;5.10;99.90
7174;DHT22;3628;48.654;8.932;2023-11-18T00:32:18;5.10;99.90
7174;DHT22;3628;48.654;8.932;2023-11-18T00:34:44;5.20;99.90
7174;DHT22;3628;48.654;8.932;2023-11-18T00:37:10;5.20;99.90
7174;DHT22;3628;48.654;8.932;2023-11-18T00:39:35;5.20;99.90
7174;DHT22;3628;48.654;8.932;2023-11-18T00:42:02;5.30;99.90
7174;DHT22;3628;48.654;8.932;2023-11-18T00:44:28;5.30;99.90
7174;DHT22;3628;48.654;8.932;2023-11-18T00:46:53;5.30;99.90
7174;DHT22;3628;48.654;8.932;2023-11-18T00:49:19;5.40;99.90
7174;DHT22;3628;48.654;8.932;2023-11-18T00:51:45;5.40;99.90
7174;DHT22;3628;48.654;8.932;2023-11-18T00:54:10;5.30;99.90
7174;DHT22;3628;48.654;8.932;2023-11-18T00:56:36;5.30;99.90
7174;DHT22;3628;48.654;8.932;2023-11-18T00:59:03;5.30;99.90
7174;DHT22;3628;48.654;8.932;2023-11-18T01:01:28;5.30;99.90
7174;DHT22;3628;48.654;8.932;2023-11-18T01:03:54;5.30;99.90
7174;DHT22;3628;48.654;8.932;2023-11-18T01:06:20;5.30;99.90
7174;DHT22;3628;48.654;8.932;2023-11-18T01:08:47;5.30;99.90
7174;DHT22;3628;48.654;8.932;2023-11-18T01:11:17;5.30;99.90
7174;DHT22;3628;48.654;8.932;2023-11-18T01:13:51;5.30;99.90
7174;DHT22;3628;48.654;8.932;2023-11-18T01:16:18;5.30;99.90
7174;DHT22;3628;48.654;8.932;2023-11-18T01:18:44;5.30;99.90
7174;DHT22;3628;48.654;8.932;2023-11-18T01:21:11;5.30;99.90
7174;DHT22;3628;48.654;8.932;2023-11-18T01:23:37;5.30;99.90
7174;DHT22;3628;48.654;8.932;2023-11-18T01:26:05;5.40;99.90
7174;DHT22;3628;48.654;8.932;2023-11-18T01:28:37;5.40;99.90
7174;DHT22;3628;48.654;8.932;2023-11-18T01:31:04;5.40;99.90
7174;DHT22;3628;48.654;8.932;2023-11-18T01:33:30;5.40;99.90
7174;DHT22;3628;48.654;8.932;2023-11-18T01:35:58;5.40;99.90
7174;DHT22;3628;48.654;8.932;2023-11-18T01:38:23;5.30;99.90
7174;DHT22;3628;48.654;8.932;2023-11-18T01:40:50;5.30;99.90
7174;DHT22;3628;48.654;8.932;2023-11-18T01:43:15;5.30;99.90
7174;DHT22;3628;48.654;8.932;2023-11-18T01:45:41;5.30;99.90
7174;DHT22;3628;48.654;8.932;2023-11-18T01:48:07;5.30;99.90
7174;DHT22;3628;48.654;8.932;2023-11-18T01:50:38;5.30;99.90
7174;DHT22;3628;48.654;8.932;2023-11-18T01:53:05;5.30;99.90
7174;DHT22;3628;48.654;8.932;2023-11-18T01:55:33;5.30;99.90
7174;DHT22;3628;48.654;8.932;2023-11-18T01:58:00;5.30;99.90
7174;DHT22;3628;48.654;8.932;2023-11-18T02:00:31;5.40;99.90
7174;DHT22;3628;48.654;8.932;2023-11-18T02:02:59;5.40;99.90
7174;DHT22;3628;48.654;8.932;2023-11-18T02:05:25;5.40;99.90
7174;DHT22;3628;48.654;8.932;2023-11-18T02:07:51;5.40;99.90
7174;DHT22;3628;48.654;8.932;2023-11-18T02:10:16;5.40;99.90
7174;DHT22;3628;48.654;8.932;2023-11-18T02:12:50;5.40;99.90
7174;DHT22;3628;48.654;8.932;2023-11-18T02:15:19;5.40;99.90
7174;DHT22;3628;48.654;8.932;2023-11-18T02:17:48;5.40;99.90
7174;DHT22;3628;48.654;8.932;2023-11-18T02:20:15;5.40;99.90
7174;DHT22;3628;48.654;8.932;2023-11-18T02:22:43;5.40;99.90
7174;DHT22;3628;48.654;8.932;2023-11-18T02:25:16;5.30;99.90
7174;DHT22;3628;48.654;8.932;2023-11-18T02:27:41;5.30;99.90
7174;DHT22;3628;48.654;8.932;2023-11-18T02:30:09;5.20;99.90
7174;DHT22;3628;48.654;8.932;2023-11-18T02:35:29;5.10;99.90
7174;DHT22;3628;48.654;8.932;2023-11-18T02:37:57;5.10;99.90
7174;DHT22;3628;48.654;8.932;2023-11-18T02:40:35;5.00;99.90
7174;DHT22;3628;48.654;8.932;2023-11-18T02:43:02;4.90;99.90
7174;DHT22;3628;48.654;8.932;2023-11-18T02:45:31;4.80;99.90
7174;DHT22;3628;48.654;8.932;2023-11-18T02:47:57;4.70;99.90
7174;DHT22;3628;48.654;8.932;2023-11-18T02:50:26;4.60;99.90
7174;DHT22;3628;48.654;8.932;2023-11-18T02:52:53;4.50;99.90
7174;DHT22;3628;48.654;8.932;2023-11-18T02:55:19;4.40;99.90
7174;DHT22;3628;48.654;8.932;2023-11-18T02:57:46;4.40;99.90
7174;DHT22;3628;48.654;8.932;2023-11-18T03:00:12;4.20;99.90
7174;DHT22;3628;48.654;8.932;2023-11-18T03:02:44;4.20;99.90
7174;DHT22;3628;48.654;8.932;2023-11-18T03:05:12;4.10;99.90
7174;DHT22;3628;48.654;8.932;2023-11-18T03:07:38;4.10;99.90
7174;DHT22;3628;48.654;8.932;2023-11-18T03:10:04;4.00;99.90
7174;DHT22;3628;48.654;8.932;2023-11-18T03:12:36;3.90;99.90
7174;DHT22;3628;48.654;8.932;2023-11-18T03:15:02;3.90;99.90
7174;DHT22;3628;48.654;8.932;2023-11-18T03:17:28;3.80;99.90
7174;DHT22;3628;48.654;8.932;2023-11-18T03:19:53;3.80;99.90
7174;DHT22;3628;48.654;8.932;2023-11-18T03:22:19;3.80;99.90
7174;DHT22;3628;48.654;8.932;2023-11-18T03:24:44;3.80;99.90
7174;DHT22;3628;48.654;8.932;2023-11-18T03:27:10;3.70;99.90
7174;DHT22;3628;48.654;8.932;2023-11-18T03:29:36;3.70;99.90
7174;DHT22;3628;48.654;8.932;2023-11-18T03:32:02;3.70;99.90
7174;DHT22;3628;48.654;8.932;2023-11-18T03:34:27;3.70;99.90
7174;DHT22;3628;48.654;8.932;2023-11-18T03:36:53;3.60;99.90
7174;DHT22;3628;48.654;8.932;2023-11-18T03:39:19;3.60;99.90
7174;DHT22;3628;48.654;8.932;2023-11-18T03:41:44;3.60;99.90
7174;DHT22;3628;48.654;8.932;2023-11-18T03:44:13;3.60;99.90
7174;DHT22;3628;48.654;8.932;2023-11-18T03:46:38;3.60;99.90
7174;DHT22;3628;48.654;8.932;2023-11-18T03:49:04;3.60;99.90
7174;DHT22;3628;48.654;8.932;2023-11-18T03:51:30;3.60;99.90
7174;DHT22;3628;48.654;8.932;2023-11-18T03:53:55;3.60;99.90
7174;DHT22;3628;48.654;8.932;2023-11-18T03:56:21;3.60;99.90
7174;DHT22;3628;48.654;8.932;2023-11-18T03:58:47;3.70;99.90
7174;DHT22;3628;48.654;8.932;2023-11-18T04:01:23;3.70;99.90
7174;DHT22;3628;48.654;8.932;2023-11-18T04:03:49;3.70;99.90
7174;DHT22;3628;48.654;8.932;2023-11-18T04:06:16;3.80;99.90
7174;DHT22;3628;48.654;8.932;2023-11-18T04:08:45;3.90;99.90
7174;DHT22;3628;48.654;8.932;2023-11-18T04:11:12;3.90;99.90
7174;DHT22;3628;48.654;8.932;2023-11-18T04:13:40;4.00;99.90
7174;DHT22;3628;48.654;8.932;2023-11-18T04:16:10;4.00;99.90
7174;DHT22;3628;48.654;8.932;2023-11-18T04:18:38;4.10;99.90
7174;DHT22;3628;48.654;8.932;2023-11-18T04:21:05;4.10;99.90
7174;DHT22;3628;48.654;8.932;2023-11-18T04:23:32;4.20;99.90
7174;DHT22;3628;48.654;8.932;2023-11-18T04:26:01;4.20;99.90
7174;DHT22;3628;48.654;8.932;2023-11-18T04:28:26;4.20;99.90
7174;DHT22;3628;48.654;8.932;2023-11-18T04:30:52;4.30;99.90
7174;DHT22;3628;48.654;8.932;2023-11-18T04:33:18;4.30;99.90
7174;DHT22;3628;48.654;8.932;2023-11-18T04:35:46;4.40;99.90
7174;DHT22;3628;48.654;8.932;2023-11-18T04:38:12;4.40;99.90
7174;DHT22;3628;48.654;8.932;2023-11-18T04:40:37;4.40;99.90
7174;DHT22;3628;48.654;8.932;2023-11-18T04:43:04;4.50;99.90
7174;DHT22;3628;48.654;8.932;2023-11-18T04:45:30;4.50;99.90
7174;DHT22;3628;48.654;8.932;2023-11-18T04:47:56;4.60;99.90
7174;DHT22;3628;48.654;8.932;2023-11-18T04:50:22;4.60;99.90
7174;DHT22;3628;48.654;8.932;2023-11-18T04:52:47;4.60;99.90
7174;DHT22;3628;48.654;8.932;2023-11-18T04:55:13;4.60;99.90
7174;DHT22;3628;48.654;8.932;2023-11-18T04:57:39;4.50;99.90
7174;DHT22;3628;48.654;8.932;2023-11-18T05:00:05;4.60;99.90
7174;DHT22;3628;48.654;8.932;2023-11-18T05:02:37;4.60;99.90
7174;DHT22;3628;48.654;8.932;2023-11-18T05:05:03;4.60;99.90
7174;DHT22;3628;48.654;8.932;2023-11-18T05:07:31;4.70;99.90
7174;DHT22;3628;48.654;8.932;2023-11-18T05:09:56;4.70;99.90
7174;DHT22;3628;48.654;8.932;2023-11-18T05:12:22;4.70;99.90
7174;DHT22;3628;48.654;8.932;2023-11-18T05:14:47;4.70;99.90
7174;DHT22;3628;48.654;8.932;2023-11-18T05:17:15;4.70;99.90
7174;DHT22;3628;48.654;8.932;2023-11-18T05:19:41;4.70;99.90
7174;DHT22;3628;48.654;8.932;2023-11-18T05:22:08;4.70;99.90
7174;DHT22;3628;48.654;8.932;2023-11-18T05:24:33;4.70;99.90
7174;DHT22;3628;48.654;8.932;2023-11-18T05:26:59;4.70;99.90
7174;DHT22;3628;48.654;8.932;2023-11-18T05:29:28;4.60;99.90
7174;DHT22;3628;48.654;8.932;2023-11-18T05:31:54;4.60;99.90
7174;DHT22;3628;48.654;8.932;2023-11-18T05:34:22;4.60;99.90
7174;DHT22;3628;48.654;8.932;2023-11-18T05:36:48;4.60;99.90
7174;DHT22;3628;48.654;8.932;2023-11-18T05:39:14;4.50;99.90
7174;DHT22;3628;48.654;8.932;2023-11-18T05:41:40;4.50;99.90
7174;DHT22;3628;48.654;8.932;2023-11-18T05:44:10;4.40;99.90
7174;DHT22;3628;48.654;8.932;2023-11-18T05:46:43;4.40;99.90
7174;DHT22;3628;48.654;8.932;2023-11-18T05:49:09;4.30;99.90
7174;DHT22;3628;48.654;8.932;2023-11-18T05:51:34;4.30;99.90
7174;DHT22;3628;48.654;8.932;2023-11-18T05:54:00;4.30;99.90
7174;DHT22;3628;48.654;8.932;2023-11-18T05:56:26;4.30;99.90
7174;DHT22;3628;48.654;8.932;2023-11-18T05:58:52;4.20;99.90
7174;DHT22;3628;48.654;8.932;2023-11-18T06:01:20;4.20;99.90
7174;DHT22;3628;48.654;8.932;2023-11-18T06:03:46;4.10;99.90
7174;DHT22;3628;48.654;8.932;2023-11-18T06:06:14;4.10;99.90
7174;DHT22;3628;48.654;8.932;2023-11-18T06:08:41;4.00;99.90
7174;DHT22;3628;48.654;8.932;2023-11-18T06:11:12;3.90;99.90
7174;DHT22;3628;48.654;8.932;2023-11-18T06:13:48;3.90;99.90
7174;DHT22;3628;48.654;8.932;2023-11-18T06:16:25;3.80;99.90
7174;DHT22;3628;48.654;8.932;2023-11-18T06:18:53;3.80;99.90
7174;DHT22;3628;48.654;8.932;2023-11-18T06:21:23;3.70;99.90
7174;DHT22;3628;48.654;8.932;2023-11-18T06:23:59;3.70;99.90
7174;DHT22;3628;48.654;8.932;2023-11-18T06:26:25;3.60;99.90
7174;DHT22;3628;48.654;8.932;2023-11-18T06:28:52;3.50;99.90
7174;DHT22;3628;48.654;8.932;2023-11-18T06:31:19;3.50;99.90
7174;DHT22;3628;48.654;8.932;2023-11-18T06:33:46;3.40;99.90
7174;DHT22;3628;48.654;8.932;2023-11-18T06:38:49;3.40;99.90
7174;DHT22;3628;48.654;8.932;2023-11-18T06:41:16;3.40;99.90
7174;DHT22;3628;48.654;8.932;2023-11-18T06:43:43;3.30;99.90
7174;DHT22;3628;48.654;8.932;2023-11-18T06:48:59;3.30;99.90
7174;DHT22;3628;48.654;8.932;2023-11-18T06:51:29;3.40;99.90
7174;DHT22;3628;48.654;8.932;2023-11-18T06:53:56;3.40;99.90
7174;DHT22;3628;48.654;8.932;2023-11-18T06:56:25;3.40;99.90
7174;DHT22;3628;48.654;8.932;2023-11-18T06:58:51;3.50;99.90
7174;DHT22;3628;48.654;8.932;2023-11-18T07:01:17;3.50;99.90
7174;DHT22;3628;48.654;8.932;2023-11-18T07:03:48;3.50;99.90
7174;DHT22;3628;48.654;8.932;2023-11-18T07:06:17;3.50;99.90
7174;DHT22;3628;48.654;8.932;2023-11-18T07:08:50;3.70;99.90
7174;DHT22;3628;48.654;8.932;2023-11-18T07:11:17;3.70;99.90
7174;DHT22;3628;48.654;8.932;2023-11-18T07:13:44;3.80;99.90
7174;DHT22;3628;48.654;8.932;2023-11-18T07:16:09;4.00;99.90
7174;DHT22;3628;48.654;8.932;2023-11-18T07:18:36;4.10;99.90
7174;DHT22;3628;48.654;8.932;2023-11-18T07:21:03;4.10;99.90
7174;DHT22;3628;48.654;8.932;2023-11-18T07:23:30;4.30;99.90
7174;DHT22;3628;48.654;8.932;2023-11-18T07:25:56;4.40;99.90
7174;DHT22;3628;48.654;8.932;2023-11-18T07:28:23;4.60;99.90
7174;DHT22;3628;48.654;8.932;2023-11-18T07:30:52;4.70;99.90
7174;DHT22;3628;48.654;8.932;2023-11-18T07:33:19;4.80;99.90
7174;DHT22;3628;48.654;8.932;2023-11-18T07:35:46;4.80;99.90
7174;DHT22;3628;48.654;8.932;2023-11-18T07:38:14;4.90;99.90
7174;DHT22;3628;48.654;8.932;2023-11-18T07:40:39;4.90;99.90
7174;DHT22;3628;48.654;8.932;2023-11-18T07:43:10;4.90;99.90
7174;DHT22;3628;48.654;8.932;2023-11-18T07:45:36;4.90;99.90
7174;DHT22;3628;48.654;8.932;2023-11-18T07:48:05;4.90;99.90
7174;DHT22;3628;48.654;8.932;2023-11-18T07:50:36;5.00;99.90
7174;DHT22;3628;48.654;8.932;2023-11-18T07:53:02;5.00;99.90
7174;DHT22;3628;48.654;8.932;2023-11-18T07:55:29;5.10;99.90
7174;DHT22;3628;48.654;8.932;2023-11-18T07:57:55;5.10;99.90
7174;DHT22;3628;48.654;8.932;2023-11-18T08:00:21;5.10;99.90
7174;DHT22;3628;48.654;8.932;2023-11-18T08:02:49;5.10;99.90
7174;DHT22;3628;48.654;8.932;2023-11-18T08:05:15;5.20;99.90
7174;DHT22;3628;48.654;8.932;2023-11-18T08:07:41;5.20;99.90
7174;DHT22;3628;48.654;8.932;2023-11-18T08:10:09;5.20;99.90
7174;DHT22;3628;48.654;8.932;2023-11-18T08:12:38;5.30;99.90
7174;DHT22;3628;48.654;8.932;2023-11-18T08:15:04;5.40;99.90
7174;DHT22;3628;48.654;8.932;2023-11-18T08:17:32;5.40;99.90
7174;DHT22;3628;48.654;8.932;2023-11-18T08:19:57;5.40;99.90
7174;DHT22;3628;48.654;8.932;2023-11-18T08:22:23;5.40;99.90
7174;DHT22;3628;48.654;8.932;2023-11-18T08:24:49;5.50;99.90
7174;DHT22;3628;48.654;8.932;2023-11-18T08:27:15;5.40;99.90
7174;DHT22;3628;48.654;8.932;2023-11-18T08:29:41;5.50;99.90
7174;DHT22;3628;48.654;8.932;2023-11-18T08:32:07;5.50;99.90
7174;DHT22;3628;48.654;8.932;2023-11-18T08:34:36;5.60;99.90
7174;DHT22;3628;48.654;8.932;2023-11-18T08:37:04;5.60;99.90
7174;DHT22;3628;48.654;8.932;2023-11-18T08:39:29;5.70;99.90
7174;DHT22;3628;48.654;8.932;2023-11-18T08:41:56;5.70;99.90
7174;DHT22;3628;48.654;8.932;2023-11-18T08:44:21;5.80;99.90
7174;DHT22;3628;48.654;8.932;2023-11-18T08:46:49;5.80;99.90
7174;DHT22;3628;48.654;8.932;2023-11-18T08:49:18;5.90;99.90
7174;DHT22;3628;48.654;8.932;2023-11-18T08:51:47;6.00;99.90
7174;DHT22;3628;48.654;8.932;2023-11-18T08:54:15;6.00;99.90
7174;DHT22;3628;48.654;8.932;2023-11-18T08:56:54;6.10;99.90
7174;DHT22;3628;48.654;8.932;2023-11-18T08:59:20;6.10;99.90
7174;DHT22;3628;48.654;8.932;2023-11-18T09:01:53;6.20;99.90
7174;DHT22;3628;48.654;8.932;2023-11-18T09:04:25;6.20;99.90
7174;DHT22;3628;48.654;8.932;2023-11-18T09:06:54;6.20;99.90
7174;DHT22;3628;48.654;8.932;2023-11-18T09:09:23;6.20;99.90
7174;DHT22;3628;48.654;8.932;2023-11-18T09:11:53;6.20;99.90
7174;DHT22;3628;48.654;8.932;2023-11-18T09:14:20;6.30;99.90
7174;DHT22;3628;48.654;8.932;2023-11-18T09:16:45;6.30;99.90
7174;DHT22;3628;48.654;8.932;2023-11-18T09:19:11;6.40;99.90
7174;DHT22;3628;48.654;8.932;2023-11-18T09:21:37;6.40;99.90
7174;DHT22;3628;48.654;8.932;2023-11-18T09:24:03;6.30;99.90
7174;DHT22;3628;48.654;8.932;2023-11-18T09:26:36;6.40;99.90
7174;DHT22;3628;48.654;8.932;2023-11-18T09:29:01;6.40;99.90
7174;DHT22;3628;48.654;8.932;2023-11-18T09:31:27;6.40;99.90
7174;DHT22;3628;48.654;8.932;2023-11-18T09:33:52;6.50;99.90
7174;DHT22;3628;48.654;8.932;2023-11-18T09:36:19;6.60;99.90
7174;DHT22;3628;48.654;8.932;2023-11-18T09:38:45;6.70;99.90
7174;DHT22;3628;48.654;8.932;2023-11-18T09:41:12;6.70;99.90
7174;DHT22;3628;48.654;8.932;2023-11-18T09:43:42;6.80;99.90
7174;DHT22;3628;48.654;8.932;2023-11-18T09:46:14;6.90;99.90
7174;DHT22;3628;48.654;8.932;2023-11-18T09:48:58;7.00;99.90
7174;DHT22;3628;48.654;8.932;2023-11-18T09:51:38;7.10;99.90
7174;DHT22;3628;48.654;8.932;2023-11-18T09:54:27;7.20;99.90
7174;DHT22;3628;48.654;8.932;2023-11-18T09:57:08;7.30;99.90
7174;DHT22;3628;48.654;8.932;2023-11-18T10:00:05;7.50;99.90
7174;DHT22;3628;48.654;8.932;2023-11-18T10:02:53;7.60;99.90
7174;DHT22;3628;48.654;8.932;2023-11-18T10:05:21;7.80;99.90
7174;DHT22;3628;48.654;8.932;2023-11-18T10:07:51;8.00;99.90
7174;DHT22;3628;48.654;8.932;2023-11-18T10:10:17;8.20;99.90
7174;DHT22;3628;48.654;8.932;2023-11-18T10:12:47;8.30;99.90
7174;DHT22;3628;48.654;8.932;2023-11-18T10:15:19;8.30;99.90
7174;DHT22;3628;48.654;8.932;2023-11-18T10:17:49;8.40;99.90
7174;DHT22;3628;48.654;8.932;2023-11-18T10:20:51;8.40;99.90
7174;DHT22;3628;48.654;8.932;2023-11-18T10:23:18;8.40;99.90
7174;DHT22;3628;48.654;8.932;2023-11-18T10:28:32;8.40;99.90
7174;DHT22;3628;48.654;8.932;2023-11-18T10:31:01;8.30;99.90
7174;DHT22;3628;48.654;8.932;2023-11-18T10:36:02;8.30;99.90
7174;DHT22;3628;48.654;8.932;2023-11-18T10:38:32;8.30;99.90
7174;DHT22;3628;48.654;8.932;2023-11-18T10:40:59;8.30;99.90
7174;DHT22;3628;48.654;8.932;2023-11-18T10:43:28;8.30;99.90
7174;DHT22;3628;48.654;8.932;2023-11-18T10:46:11;8.30;99.90
7174;DHT22;3628;48.654;8.932;2023-11-18T10:48:40;8.30;99.90
7174;DHT22;3628;48.654;8.932;2023-11-18T10:51:08;8.50;99.90
7174;DHT22;3628;48.654;8.932;2023-11-18T10:53:34;8.40;99.90
7174;DHT22;3628;48.654;8.932;2023-11-18T10:56:05;8.40;99.90
7174;DHT22;3628;48.654;8.932;2023-11-18T10:58:37;8.40;99.90
7174;DHT22;3628;48.654;8.932;2023-11-18T11:01:06;8.30;99.90
7174;DHT22;3628;48.654;8.932;2023-11-18T11:03:52;8.30;99.90
7174;DHT22;3628;48.654;8.932;2023-11-18T11:06:21;8.20;99.90
7174;DHT22;3628;48.654;8.932;2023-11-18T11:08:50;8.30;99.90
7174;DHT22;3628;48.654;8.932;2023-11-18T11:11:22;8.20;99.90
7174;DHT22;3628;48.654;8.932;2023-11-18T11:14:00;8.10;99.90
7174;DHT22;3628;48.654;8.932;2023-11-18T11:16:52;8.00;99.90
7174;DHT22;3628;48.654;8.932;2023-11-18T11:19:38;8.00;99.90
7174;DHT22;3628;48.654;8.932;2023-11-18T11:22:10;8.00;99.90
7174;DHT22;3628;48.654;8.932;2023-11-18T11:27:41;8.00;99.90
7174;DHT22;3628;48.654;8.932;2023-11-18T11:30:27;8.00;99.90
7174;DHT22;3628;48.654;8.932;2023-11-18T11:33:23;8.10;99.90
7174;DHT22;3628;48.654;8.932;2023-11-18T11:35:55;8.20;99.90
7174;DHT22;3628;48.654;8.932;2023-11-18T11:38:24;8.10;99.90
7174;DHT22;3628;48.654;8.932;2023-11-18T11:40:53;8.10;99.90
7174;DHT22;3628;48.654;8.932;2023-11-18T11:43:20;8.00;99.90
7174;DHT22;3628;48.654;8.932;2023-11-18T11:45:53;8.00;99.90
7174;DHT22;3628;48.654;8.932;2023-11-18T11:48:21;8.00;99.90
7174;DHT22;3628;48.654;8.932;2023-11-18T11:54:11;8.00;99.90
7174;DHT22;3628;48.654;8.932;2023-11-18T11:59:13;8.10;99.90
7174;DHT22;3628;48.654;8.932;2023-11-18T12:01:40;8.20;99.90
7174;DHT22;3628;48.654;8.932;2023-11-18T12:04:12;8.20;99.90
7174;DHT22;3628;48.654;8.932;2023-11-18T12:06:50;8.20;99.90
7174;DHT22;3628;48.654;8.932;2023-11-18T12:09:19;8.20;99.90
7174;DHT22;3628;48.654;8.932;2023-11-18T12:11:45;8.20;99.90
7174;DHT22;3628;48.654;8.932;2023-11-18T12:14:15;8.30;99.90
7174;DHT22;3628;48.654;8.932;2023-11-18T12:17:06;8.20;99.90
7174;DHT22;3628;48.654;8.932;2023-11-18T12:19:36;8.20;99.90
7174;DHT22;3628;48.654;8.932;2023-11-18T12:22:10;8.20;99.90
7174;DHT22;3628;48.654;8.932;2023-11-18T12:25:28;8.20;99.90
7174;DHT22;3628;48.654;8.932;2023-11-18T12:35:24;8.20;99.90
7174;DHT22;3628;48.654;8.932;2023-11-18T12:40:54;8.10;99.90
7174;DHT22;3628;48.654;8.932;2023-11-18T12:49:13;8.00;99.90
7174;DHT22;3628;48.654;8.932;2023-11-18T12:51:40;8.00;99.90
7174;DHT22;3628;48.654;8.932;2023-11-18T12:54:09;8.00;99.90
7174;DHT22;3628;48.654;8.932;2023-11-18T12:56:37;8.00;99.90
7174;DHT22;3628;48.654;8.932;2023-11-18T12:59:04;8.00;99.90
7174;DHT22;3628;48.654;8.932;2023-11-18T13:01:32;8.00;99.90
7174;DHT22;3628;48.654;8.932;2023-11-18T13:04:02;8.10;99.90
7174;DHT22;3628;48.654;8.932;2023-11-18T13:06:28;8.10;99.90
7174;DHT22;3628;48.654;8.932;2023-11-18T13:08:54;8.10;99.90
7174;DHT22;3628;48.654;8.932;2023-11-18T13:11:22;8.10;99.90
7174;DHT22;3628;48.654;8.932;2023-11-18T13:13:51;8.00;99.90
7174;DHT22;3628;48.654;8.932;2023-11-18T13:16:16;7.90;99.90
7174;DHT22;3628;48.654;8.932;2023-11-18T13:18:47;7.90;99.90
7174;DHT22;3628;48.654;8.932;2023-11-18T13:21:18;7.90;99.90
7174;DHT22;3628;48.654;8.932;2023-11-18T13:23:52;7.90;99.90
7174;DHT22;3628;48.654;8.932;2023-11-18T13:26:19;7.80;99.90
7174;DHT22;3628;48.654;8.932;2023-11-18T13:28:49;7.80;99.90
7174;DHT22;3628;48.654;8.932;2023-11-18T13:31:15;7.80;99.90
7174;DHT22;3628;48.654;8.932;2023-11-18T13:33:43;7.80;99.90
7174;DHT22;3628;48.654;8.932;2023-11-18T13:36:09;7.80;99.90
7174;DHT22;3628;48.654;8.932;2023-11-18T13:38:39;7.70;99.90
7174;DHT22;3628;48.654;8.932;2023-11-18T13:41:05;7.60;99.90
7174;DHT22;3628;48.654;8.932;2023-11-18T13:43:44;7.60;99.90
7174;DHT22;3628;48.654;8.932;2023-11-18T13:46:11;7.60;99.90
7174;DHT22;3628;48.654;8.932;2023-11-18T13:48:37;7.50;99.90
7174;DHT22;3628;48.654;8.932;2023-11-18T13:51:12;7.40;99.90
7174;DHT22;3628;48.654;8.932;2023-11-18T13:53:41;7.40;99.90
7174;DHT22;3628;48.654;8.932;2023-11-18T13:56:10;7.40;99.90
7174;DHT22;3628;48.654;8.932;2023-11-18T13:58:36;7.40;99.90
7174;DHT22;3628;48.654;8.932;2023-11-18T14:01:10;7.40;99.90
7174;DHT22;3628;48.654;8.932;2023-11-18T14:03:36;7.50;99.90
7174;DHT22;3628;48.654;8.932;2023-11-18T14:06:06;7.50;99.90
7174;DHT22;3628;48.654;8.932;2023-11-18T14:08:32;7.50;99.90
7174;DHT22;3628;48.654;8.932;2023-11-18T14:10:59;7.60;99.90
7174;DHT22;3628;48.654;8.932;2023-11-18T14:13:25;7.60;99.90
7174;DHT22;3628;48.654;8.932;2023-11-18T14:15:57;7.70;99.90
7174;DHT22;3628;48.654;8.932;2023-11-18T14:18:23;7.70;99.90
7174;DHT22;3628;48.654;8.932;2023-11-18T14:20:48;7.70;99.90
7174;DHT22;3628;48.654;8.932;2023-11-18T14:23:15;7.70;99.90
7174;DHT22;3628;48.654;8.932;2023-11-18T14:25:41;7.70;99.90
7174;DHT22;3628;48.654;8.932;2023-11-18T14:28:07;7.70;99.90
7174;DHT22;3628;48.654;8.932;2023-11-18T14:30:35;7.80;99.90
7174;DHT22;3628;48.654;8.932;2023-11-18T14:33:01;7.80;99.90
7174;DHT22;3628;48.654;8.932;2023-11-18T14:35:27;7.80;99.90
7174;DHT22;3628;48.654;8.932;2023-11-18T14:37:52;7.70;99.90
7174;DHT22;3628;48.654;8.932;2023-11-18T14:40:18;7.80;99.90
7174;DHT22;3628;48.654;8.932;2023-11-18T14:42:46;7.80;99.90
7174;DHT22;3628;48.654;8.932;2023-11-18T14:45:14;7.70;99.90
7174;DHT22;3628;48.654;8.932;2023-11-18T14:47:44;7.70;99.90
7174;DHT22;3628;48.654;8.932;2023-11-18T14:50:37;7.70;99.90
7174;DHT22;3628;48.654;8.932;2023-11-18T14:53:03;7.70;99.90
7174;DHT22;3628;48.654;8.932;2023-11-18T14:55:30;7.70;99.90
7174;DHT22;3628;48.654;8.932;2023-11-18T14:57:56;7.70;99.90
7174;DHT22;3628;48.654;8.932;2023-11-18T15:00:22;7.70;99.90
7174;DHT22;3628;48.654;8.932;2023-11-18T15:02:51;7.80;99.90
7174;DHT22;3628;48.654;8.932;2023-11-18T15:05:17;7.80;99.90
7174;DHT22;3628;48.654;8.932;2023-11-18T15:07:47;7.80;99.90
7174;DHT22;3628;48.654;8.932;2023-11-18T15:10:17;7.80;99.90
7174;DHT22;3628;48.654;8.932;2023-11-18T15:12:53;7.70;99.90
7174;DHT22;3628;48.654;8.932;2023-11-18T15:15:24;7.70;99.90
7174;DHT22;3628;48.654;8.932;2023-11-18T15:18:06;7.70;99.90
7174;DHT22;3628;48.654;8.932;2023-11-18T15:20:34;7.70;99.90
7174;DHT22;3628;48.654;8.932;2023-11-18T15:23:03;7.60;99.90
7174;DHT22;3628;48.654;8.932;2023-11-18T15:25:30;7.60;99.90
7174;DHT22;3628;48.654;8.932;2023-11-18T15:27:55;7.50;99.90
7174;DHT22;3628;48.654;8.932;2023-11-18T15:30:22;7.50;99.90
7174;DHT22;3628;48.654;8.932;2023-11-18T15:32:50;7.40;99.90
7174;DHT22;3628;48.654;8.932;2023-11-18T15:35:17;7.40;99.90
7174;DHT22;3628;48.654;8.932;2023-11-18T15:37:43;7.40;99.90
7174;DHT22;3628;48.654;8.932;2023-11-18T15:40:13;7.40;99.90
7174;DHT22;3628;48.654;8.932;2023-11-18T15:42:41;7.50;99.90
7174;DHT22;3628;48.654;8.932;2023-11-18T15:45:12;7.50;99.90
7174;DHT22;3628;48.654;8.932;2023-11-18T15:47:38;7.50;99.90
7174;DHT22;3628;48.654;8.932;2023-11-18T15:50:05;7.60;99.90
7174;DHT22;3628;48.654;8.932;2023-11-18T15:52:35;7.50;99.90
7174;DHT22;3628;48.654;8.932;2023-11-18T15:55:02;7.50;99.90
7174;DHT22;3628;48.654;8.932;2023-11-18T15:57:38;7.50;99.90
7174;DHT22;3628;48.654;8.932;2023-11-18T16:00:05;7.50;99.90
7174;DHT22;3628;48.654;8.932;2023-11-18T16:02:34;7.50;99.90
7174;DHT22;3628;48.654;8.932;2023-11-18T16:04:59;7.50;99.90
7174;DHT22;3628;48.654;8.932;2023-11-18T16:07:25;7.50;99.90
7174;DHT22;3628;48.654;8.932;2023-11-18T16:09:51;7.50;99.90
7174;DHT22;3628;48.654;8.932;2023-11-18T16:12:16;7.50;99.90
7174;DHT22;3628;48.654;8.932;2023-11-18T16:14:42;7.50;99.90
7174;DHT22;3628;48.654;8.932;2023-11-18T16:17:07;7.50;99.90
7174;DHT22;3628;48.654;8.932;2023-11-18T16:19:33;7.50;99.90
7174;DHT22;3628;48.654;8.932;2023-11-18T16:22:00;7.40;99.90
7174;DHT22;3628;48.654;8.932;2023-11-18T16:24:25;7.50;99.90
7174;DHT22;3628;48.654;8.932;2023-11-18T16:26:51;7.50;99.90
7174;DHT22;3628;48.654;8.932;2023-11-18T16:29:17;7.50;99.90
7174;DHT22;3628;48.654;8.932;2023-11-18T16:31:44;7.50;99.90
7174;DHT22;3628;48.654;8.932;2023-11-18T16:34:10;7.50;99.90
7174;DHT22;3628;48.654;8.932;2023-11-18T16:36:35;7.40;99.90
7174;DHT22;3628;48.654;8.932;2023-11-18T16:39:04;7.40;99.90
7174;DHT22;3628;48.654;8.932;2023-11-18T16:41:32;7.40;99.90
7174;DHT22;3628;48.654;8.932;2023-11-18T16:43:57;7.40;99.90
7174;DHT22;3628;48.654;8.932;2023-11-18T16:46:23;7.40;99.90
7174;DHT22;3628;48.654;8.932;2023-11-18T16:48:50;7.40;99.90
7174;DHT22;3628;48.654;8.932;2023-11-18T16:51:15;7.30;99.90
7174;DHT22;3628;48.654;8.932;2023-11-18T16:53:42;7.30;99.90
7174;DHT22;3628;48.654;8.932;2023-11-18T16:56:08;7.30;99.90
7174;DHT22;3628;48.654;8.932;2023-11-18T16:58:34;7.20;99.90
7174;DHT22;3628;48.654;8.932;2023-11-18T17:00:59;7.20;99.90
7174;DHT22;3628;48.654;8.932;2023-11-18T17:03:25;7.20;99.90